sensor_id;sensor_type;location;lat;lon;timestamp;temperature;humidity
25112;DHT22;13092;51.996;4.458;2022-10-31T00:01:12;14.10;99.90
25112;DHT22;13092;51.996;4.458;2022-10-31T00:03:40;14.10;99.90
25112;DHT22;13092;51.996;4.458;2022-10-31T00:06:08;14.10;99.90
25112;DHT22;13092;51.996;4.458;2022-10-31T00:08:37;14.10;99.90
25112;DHT22;13092;51.996;4.458;2022-10-31T00:11:09;14.10;99.90
25112;DHT22;13092;51.996;4.458;2022-10-31T00:13:38;14.10;99.90
25112;DHT22;13092;51.996;4.458;2022-10-31T00:16:13;14.00;99.90
25112;DHT22;13092;51.996;4.458;2022-10-31T00:18:44;14.00;99.90
25112;DHT22;13092;51.996;4.458;2022-10-31T00:21:15;14.00;99.90
25112;DHT22;13092;51.996;4.458;2022-10-31T00:23:43;14.00;99.90
25112;DHT22;13092;51.996;4.458;2022-10-31T00:26:12;14.00;99.90
25112;DHT22;13092;51.996;4.458;2022-10-31T00:28:40;13.90;99.90
25112;DHT22;13092;51.996;4.458;2022-10-31T00:31:10;13.80;99.90
25112;DHT22;13092;51.996;4.458;2022-10-31T00:33:39;13.80;99.90
25112;DHT22;13092;51.996;4.458;2022-10-31T00:36:10;13.90;99.90
25112;DHT22;13092;51.996;4.458;2022-10-31T00:38:43;13.90;99.90
25112;DHT22;13092;51.996;4.458;2022-10-31T00:41:16;13.90;99.90
25112;DHT22;13092;51.996;4.458;2022-10-31T00:43:44;13.90;99.90
25112;DHT22;13092;51.996;4.458;2022-10-31T00:46:13;13.90;99.90
25112;DHT22;13092;51.996;4.458;2022-10-31T00:48:41;13.90;99.90
25112;DHT22;13092;51.996;4.458;2022-10-31T00:51:09;13.80;99.90
25112;DHT22;13092;51.996;4.458;2022-10-31T00:53:37;13.80;99.90
25112;DHT22;13092;51.996;4.458;2022-10-31T00:56:06;13.80;99.90
25112;DHT22;13092;51.996;4.458;2022-10-31T00:58:35;13.80;99.90
25112;DHT22;13092;51.996;4.458;2022-10-31T01:01:04;13.80;99.90
25112;DHT22;13092;51.996;4.458;2022-10-31T01:03:35;13.80;99.90
25112;DHT22;13092;51.996;4.458;2022-10-31T01:06:07;13.80;99.90
25112;DHT22;13092;51.996;4.458;2022-10-31T01:08:35;13.80;99.90
25112;DHT22;13092;51.996;4.458;2022-10-31T01:11:13;13.80;99.90
25112;DHT22;13092;51.996;4.458;2022-10-31T01:13:44;13.80;99.90
25112;DHT22;13092;51.996;4.458;2022-10-31T01:16:15;13.80;99.90
25112;DHT22;13092;51.996;4.458;2022-10-31T01:18:43;13.70;99.90
25112;DHT22;13092;51.996;4.458;2022-10-31T01:21:17;13.70;99.90
25112;DHT22;13092;51.996;4.458;2022-10-31T01:23:45;13.80;99.90
25112;DHT22;13092;51.996;4.458;2022-10-31T01:26:15;13.70;99.90
25112;DHT22;13092;51.996;4.458;2022-10-31T01:28:47;13.70;99.90
25112;DHT22;13092;51.996;4.458;2022-10-31T01:31:17;13.70;99.90
25112;DHT22;13092;51.996;4.458;2022-10-31T01:33:45;13.70;99.90
25112;DHT22;13092;51.996;4.458;2022-10-31T01:36:16;13.60;99.90
25112;DHT22;13092;51.996;4.458;2022-10-31T01:38:46;13.60;99.90
25112;DHT22;13092;51.996;4.458;2022-10-31T01:41:17;13.60;99.90
25112;DHT22;13092;51.996;4.458;2022-10-31T01:43:49;13.60;99.90
25112;DHT22;13092;51.996;4.458;2022-10-31T01:46:20;13.50;99.90
25112;DHT22;13092;51.996;4.458;2022-10-31T01:48:50;13.50;99.90
25112;DHT22;13092;51.996;4.458;2022-10-31T01:51:20;13.60;99.90
25112;DHT22;13092;51.996;4.458;2022-10-31T01:53:50;13.40;99.90
25112;DHT22;13092;51.996;4.458;2022-10-31T01:56:20;13.40;99.90
25112;DHT22;13092;51.996;4.458;2022-10-31T01:58:51;13.30;99.90
25112;DHT22;13092;51.996;4.458;2022-10-31T02:01:22;13.40;99.90
25112;DHT22;13092;51.996;4.458;2022-10-31T02:03:50;13.40;99.90
25112;DHT22;13092;51.996;4.458;2022-10-31T02:06:26;13.20;99.90
25112;DHT22;13092;51.996;4.458;2022-10-31T02:08:57;13.30;99.90
25112;DHT22;13092;51.996;4.458;2022-10-31T02:11:28;13.30;99.90
25112;DHT22;13092;51.996;4.458;2022-10-31T02:13:58;13.40;99.90
25112;DHT22;13092;51.996;4.458;2022-10-31T02:16:27;13.30;99.90
25112;DHT22;13092;51.996;4.458;2022-10-31T02:18:56;13.30;99.90
25112;DHT22;13092;51.996;4.458;2022-10-31T02:21:28;13.30;99.90
25112;DHT22;13092;51.996;4.458;2022-10-31T02:24:41;13.20;99.90
25112;DHT22;13092;51.996;4.458;2022-10-31T02:27:34;13.20;99.90
25112;DHT22;13092;51.996;4.458;2022-10-31T02:30:12;13.20;99.90
25112;DHT22;13092;51.996;4.458;2022-10-31T02:32:54;13.10;99.90
25112;DHT22;13092;51.996;4.458;2022-10-31T02:35:32;13.10;99.90
25112;DHT22;13092;51.996;4.458;2022-10-31T02:38:14;13.10;99.90
25112;DHT22;13092;51.996;4.458;2022-10-31T02:40:51;13.10;99.90
25112;DHT22;13092;51.996;4.458;2022-10-31T02:43:23;13.00;99.90
25112;DHT22;13092;51.996;4.458;2022-10-31T02:45:57;13.00;99.90
25112;DHT22;13092;51.996;4.458;2022-10-31T02:48:28;12.90;99.90
25112;DHT22;13092;51.996;4.458;2022-10-31T02:51:00;13.00;99.90
25112;DHT22;13092;51.996;4.458;2022-10-31T02:53:34;12.90;99.90
25112;DHT22;13092;51.996;4.458;2022-10-31T02:56:06;12.90;99.90
25112;DHT22;13092;51.996;4.458;2022-10-31T02:58:40;12.90;99.90
25112;DHT22;13092;51.996;4.458;2022-10-31T03:01:39;12.90;99.90
25112;DHT22;13092;51.996;4.458;2022-10-31T03:04:26;12.80;99.90
25112;DHT22;13092;51.996;4.458;2022-10-31T03:07:03;12.80;99.90
25112;DHT22;13092;51.996;4.458;2022-10-31T03:09:42;12.80;99.90
25112;DHT22;13092;51.996;4.458;2022-10-31T03:12:15;12.80;99.90
25112;DHT22;13092;51.996;4.458;2022-10-31T03:14:51;12.80;99.90
25112;DHT22;13092;51.996;4.458;2022-10-31T03:17:26;12.80;99.90
25112;DHT22;13092;51.996;4.458;2022-10-31T03:19:59;12.70;99.90
25112;DHT22;13092;51.996;4.458;2022-10-31T03:22:29;12.80;99.90
25112;DHT22;13092;51.996;4.458;2022-10-31T03:25:04;12.80;99.90
25112;DHT22;13092;51.996;4.458;2022-10-31T03:27:36;12.80;99.90
25112;DHT22;13092;51.996;4.458;2022-10-31T03:30:06;12.80;99.90
25112;DHT22;13092;51.996;4.458;2022-10-31T03:32:38;12.80;99.90
25112;DHT22;13092;51.996;4.458;2022-10-31T03:35:09;12.80;99.90
25112;DHT22;13092;51.996;4.458;2022-10-31T03:37:38;12.80;99.90
25112;DHT22;13092;51.996;4.458;2022-10-31T03:40:09;12.70;99.90
25112;DHT22;13092;51.996;4.458;2022-10-31T03:42:39;12.80;99.90
25112;DHT22;13092;51.996;4.458;2022-10-31T03:45:12;12.90;99.90
25112;DHT22;13092;51.996;4.458;2022-10-31T03:47:42;12.80;99.90
25112;DHT22;13092;51.996;4.458;2022-10-31T03:50:15;12.90;99.90
25112;DHT22;13092;51.996;4.458;2022-10-31T03:52:47;12.80;99.90
25112;DHT22;13092;51.996;4.458;2022-10-31T03:55:19;12.80;99.90
25112;DHT22;13092;51.996;4.458;2022-10-31T03:57:52;12.80;99.90
25112;DHT22;13092;51.996;4.458;2022-10-31T04:00:22;12.90;99.90
25112;DHT22;13092;51.996;4.458;2022-10-31T04:02:55;12.90;99.90
25112;DHT22;13092;51.996;4.458;2022-10-31T04:05:27;12.90;99.90
25112;DHT22;13092;51.996;4.458;2022-10-31T04:07:57;12.80;99.90
25112;DHT22;13092;51.996;4.458;2022-10-31T04:10:27;12.80;99.90
25112;DHT22;13092;51.996;4.458;2022-10-31T04:13:04;12.80;99.90
25112;DHT22;13092;51.996;4.458;2022-10-31T04:15:35;12.80;99.90
25112;DHT22;13092;51.996;4.458;2022-10-31T04:18:04;12.80;99.90
25112;DHT22;13092;51.996;4.458;2022-10-31T04:20:36;12.80;99.90
25112;DHT22;13092;51.996;4.458;2022-10-31T04:23:04;12.80;99.90
25112;DHT22;13092;51.996;4.458;2022-10-31T04:25:37;12.90;99.90
25112;DHT22;13092;51.996;4.458;2022-10-31T04:28:05;12.70;99.90
25112;DHT22;13092;51.996;4.458;2022-10-31T04:30:34;12.70;99.90
25112;DHT22;13092;51.996;4.458;2022-10-31T04:33:02;12.70;99.90
25112;DHT22;13092;51.996;4.458;2022-10-31T04:35:30;12.70;99.90
25112;DHT22;13092;51.996;4.458;2022-10-31T04:37:59;12.70;99.90
25112;DHT22;13092;51.996;4.458;2022-10-31T04:40:27;12.60;99.90
25112;DHT22;13092;51.996;4.458;2022-10-31T04:42:55;12.60;99.90
25112;DHT22;13092;51.996;4.458;2022-10-31T04:45:23;12.60;99.90
25112;DHT22;13092;51.996;4.458;2022-10-31T04:47:51;12.60;99.90
25112;DHT22;13092;51.996;4.458;2022-10-31T04:50:22;12.60;99.90
25112;DHT22;13092;51.996;4.458;2022-10-31T04:52:50;12.60;99.90
25112;DHT22;13092;51.996;4.458;2022-10-31T04:55:19;12.60;99.90
25112;DHT22;13092;51.996;4.458;2022-10-31T04:57:48;12.60;99.90
25112;DHT22;13092;51.996;4.458;2022-10-31T05:00:19;12.50;99.90
25112;DHT22;13092;51.996;4.458;2022-10-31T05:02:47;12.40;99.90
25112;DHT22;13092;51.996;4.458;2022-10-31T05:05:17;12.50;99.90
25112;DHT22;13092;51.996;4.458;2022-10-31T05:07:47;12.30;99.90
25112;DHT22;13092;51.996;4.458;2022-10-31T05:10:17;12.40;99.90
25112;DHT22;13092;51.996;4.458;2022-10-31T05:12:47;12.30;99.90
25112;DHT22;13092;51.996;4.458;2022-10-31T05:15:17;12.30;99.90
25112;DHT22;13092;51.996;4.458;2022-10-31T05:17:45;12.30;99.90
25112;DHT22;13092;51.996;4.458;2022-10-31T05:20:14;12.30;99.90
25112;DHT22;13092;51.996;4.458;2022-10-31T05:22:43;12.20;99.90
25112;DHT22;13092;51.996;4.458;2022-10-31T05:25:12;12.20;99.90
25112;DHT22;13092;51.996;4.458;2022-10-31T05:27:43;12.30;99.90
25112;DHT22;13092;51.996;4.458;2022-10-31T05:30:14;12.30;99.90
25112;DHT22;13092;51.996;4.458;2022-10-31T05:32:44;12.20;99.90
25112;DHT22;13092;51.996;4.458;2022-10-31T05:35:15;12.30;99.90
25112;DHT22;13092;51.996;4.458;2022-10-31T05:37:43;12.20;99.90
25112;DHT22;13092;51.996;4.458;2022-10-31T05:40:12;12.20;99.90
25112;DHT22;13092;51.996;4.458;2022-10-31T05:42:42;12.40;99.90
25112;DHT22;13092;51.996;4.458;2022-10-31T05:45:13;12.20;99.90
25112;DHT22;13092;51.996;4.458;2022-10-31T05:47:42;12.10;99.90
25112;DHT22;13092;51.996;4.458;2022-10-31T05:50:10;12.10;99.90
25112;DHT22;13092;51.996;4.458;2022-10-31T05:52:38;12.10;99.90
25112;DHT22;13092;51.996;4.458;2022-10-31T05:55:06;12.10;99.90
25112;DHT22;13092;51.996;4.458;2022-10-31T05:57:36;12.10;99.90
25112;DHT22;13092;51.996;4.458;2022-10-31T06:00:06;12.10;99.90
25112;DHT22;13092;51.996;4.458;2022-10-31T06:02:35;12.10;99.90
25112;DHT22;13092;51.996;4.458;2022-10-31T06:05:07;12.20;99.90
25112;DHT22;13092;51.996;4.458;2022-10-31T06:07:35;12.00;99.90
25112;DHT22;13092;51.996;4.458;2022-10-31T06:10:07;12.00;99.90
25112;DHT22;13092;51.996;4.458;2022-10-31T06:12:35;12.00;99.90
25112;DHT22;13092;51.996;4.458;2022-10-31T06:15:05;12.10;99.90
25112;DHT22;13092;51.996;4.458;2022-10-31T06:17:35;12.00;99.90
25112;DHT22;13092;51.996;4.458;2022-10-31T06:20:04;12.00;99.90
25112;DHT22;13092;51.996;4.458;2022-10-31T06:22:33;12.00;99.90
25112;DHT22;13092;51.996;4.458;2022-10-31T06:25:02;12.00;99.90
25112;DHT22;13092;51.996;4.458;2022-10-31T06:27:29;12.00;99.90
25112;DHT22;13092;51.996;4.458;2022-10-31T06:29:58;12.10;99.90
25112;DHT22;13092;51.996;4.458;2022-10-31T06:32:26;12.00;99.90
25112;DHT22;13092;51.996;4.458;2022-10-31T06:34:55;12.00;99.90
25112;DHT22;13092;51.996;4.458;2022-10-31T06:37:23;11.90;99.90
25112;DHT22;13092;51.996;4.458;2022-10-31T06:39:51;12.00;99.90
25112;DHT22;13092;51.996;4.458;2022-10-31T06:42:19;11.90;99.90
25112;DHT22;13092;51.996;4.458;2022-10-31T06:44:47;11.90;99.90
25112;DHT22;13092;51.996;4.458;2022-10-31T06:47:15;12.00;99.90
25112;DHT22;13092;51.996;4.458;2022-10-31T06:49:43;12.00;99.90
25112;DHT22;13092;51.996;4.458;2022-10-31T06:52:12;12.00;99.90
25112;DHT22;13092;51.996;4.458;2022-10-31T06:54:40;12.00;99.90
25112;DHT22;13092;51.996;4.458;2022-10-31T06:57:08;12.00;99.90
25112;DHT22;13092;51.996;4.458;2022-10-31T06:59:36;12.10;99.90
25112;DHT22;13092;51.996;4.458;2022-10-31T07:02:04;12.00;99.90
25112;DHT22;13092;51.996;4.458;2022-10-31T07:04:35;12.10;99.90
25112;DHT22;13092;51.996;4.458;2022-10-31T07:07:03;12.10;99.90
25112;DHT22;13092;51.996;4.458;2022-10-31T07:09:33;12.00;99.90
25112;DHT22;13092;51.996;4.458;2022-10-31T07:12:03;12.20;99.90
25112;DHT22;13092;51.996;4.458;2022-10-31T07:14:31;12.10;99.90
25112;DHT22;13092;51.996;4.458;2022-10-31T07:16:59;12.10;99.90
25112;DHT22;13092;51.996;4.458;2022-10-31T07:19:27;12.10;99.90
25112;DHT22;13092;51.996;4.458;2022-10-31T07:21:56;12.10;99.90
25112;DHT22;13092;51.996;4.458;2022-10-31T07:24:24;12.20;99.90
25112;DHT22;13092;51.996;4.458;2022-10-31T07:26:54;12.30;99.90
25112;DHT22;13092;51.996;4.458;2022-10-31T07:29:22;12.30;99.90
25112;DHT22;13092;51.996;4.458;2022-10-31T07:31:50;12.30;99.90
25112;DHT22;13092;51.996;4.458;2022-10-31T07:34:18;12.40;99.90
25112;DHT22;13092;51.996;4.458;2022-10-31T07:36:46;12.40;99.90
25112;DHT22;13092;51.996;4.458;2022-10-31T07:39:14;12.50;99.90
25112;DHT22;13092;51.996;4.458;2022-10-31T07:41:42;12.50;99.90
25112;DHT22;13092;51.996;4.458;2022-10-31T07:44:11;12.60;99.90
25112;DHT22;13092;51.996;4.458;2022-10-31T07:46:39;12.60;99.90
25112;DHT22;13092;51.996;4.458;2022-10-31T07:49:07;12.60;99.90
25112;DHT22;13092;51.996;4.458;2022-10-31T07:51:35;12.80;99.90
25112;DHT22;13092;51.996;4.458;2022-10-31T07:54:07;12.70;99.90
25112;DHT22;13092;51.996;4.458;2022-10-31T07:56:35;12.70;99.90
25112;DHT22;13092;51.996;4.458;2022-10-31T07:59:03;12.70;99.90
25112;DHT22;13092;51.996;4.458;2022-10-31T08:01:32;12.80;99.90
25112;DHT22;13092;51.996;4.458;2022-10-31T08:04:00;12.70;99.90
25112;DHT22;13092;51.996;4.458;2022-10-31T08:06:28;12.80;99.90
25112;DHT22;13092;51.996;4.458;2022-10-31T08:08:56;12.80;99.90
25112;DHT22;13092;51.996;4.458;2022-10-31T08:11:24;12.90;99.90
25112;DHT22;13092;51.996;4.458;2022-10-31T08:13:52;13.00;99.90
25112;DHT22;13092;51.996;4.458;2022-10-31T08:16:20;12.90;99.90
25112;DHT22;13092;51.996;4.458;2022-10-31T08:18:50;12.90;99.90
25112;DHT22;13092;51.996;4.458;2022-10-31T08:21:18;13.00;99.90
25112;DHT22;13092;51.996;4.458;2022-10-31T08:23:46;13.00;99.90
25112;DHT22;13092;51.996;4.458;2022-10-31T08:26:14;13.00;99.90
25112;DHT22;13092;51.996;4.458;2022-10-31T08:28:42;13.10;99.90
25112;DHT22;13092;51.996;4.458;2022-10-31T08:31:10;13.10;99.90
25112;DHT22;13092;51.996;4.458;2022-10-31T08:33:38;13.20;99.90
25112;DHT22;13092;51.996;4.458;2022-10-31T08:36:08;13.20;99.90
25112;DHT22;13092;51.996;4.458;2022-10-31T08:38:36;13.20;99.90
25112;DHT22;13092;51.996;4.458;2022-10-31T08:41:04;13.30;99.90
25112;DHT22;13092;51.996;4.458;2022-10-31T08:43:32;13.40;99.90
25112;DHT22;13092;51.996;4.458;2022-10-31T08:46:00;13.40;99.90
25112;DHT22;13092;51.996;4.458;2022-10-31T08:48:29;13.50;99.90
25112;DHT22;13092;51.996;4.458;2022-10-31T08:50:59;13.50;99.90
25112;DHT22;13092;51.996;4.458;2022-10-31T08:53:29;13.60;99.90
25112;DHT22;13092;51.996;4.458;2022-10-31T08:55:57;13.70;99.90
25112;DHT22;13092;51.996;4.458;2022-10-31T08:58:25;13.70;99.90
25112;DHT22;13092;51.996;4.458;2022-10-31T09:00:54;13.80;99.90
25112;DHT22;13092;51.996;4.458;2022-10-31T09:03:25;13.90;99.90
25112;DHT22;13092;51.996;4.458;2022-10-31T09:05:56;14.00;99.90
25112;DHT22;13092;51.996;4.458;2022-10-31T09:08:24;14.10;99.90
25112;DHT22;13092;51.996;4.458;2022-10-31T09:10:56;14.20;99.90
25112;DHT22;13092;51.996;4.458;2022-10-31T09:13:26;14.30;99.90
25112;DHT22;13092;51.996;4.458;2022-10-31T09:15:56;14.30;99.90
25112;DHT22;13092;51.996;4.458;2022-10-31T09:18:24;14.40;99.90
25112;DHT22;13092;51.996;4.458;2022-10-31T09:20:56;14.60;99.90
25112;DHT22;13092;51.996;4.458;2022-10-31T09:23:24;14.50;99.90
25112;DHT22;13092;51.996;4.458;2022-10-31T09:25:54;14.60;99.90
25112;DHT22;13092;51.996;4.458;2022-10-31T09:28:24;14.70;99.90
25112;DHT22;13092;51.996;4.458;2022-10-31T09:30:53;14.70;99.90
25112;DHT22;13092;51.996;4.458;2022-10-31T09:33:21;14.80;99.90
25112;DHT22;13092;51.996;4.458;2022-10-31T09:35:49;14.90;99.90
25112;DHT22;13092;51.996;4.458;2022-10-31T09:38:18;14.90;99.90
25112;DHT22;13092;51.996;4.458;2022-10-31T09:40:51;14.90;99.90
25112;DHT22;13092;51.996;4.458;2022-10-31T09:43:31;15.00;99.90
25112;DHT22;13092;51.996;4.458;2022-10-31T09:46:06;15.10;99.90
25112;DHT22;13092;51.996;4.458;2022-10-31T09:48:47;15.10;99.90
25112;DHT22;13092;51.996;4.458;2022-10-31T09:51:19;15.20;99.90
25112;DHT22;13092;51.996;4.458;2022-10-31T09:53:51;15.30;99.90
25112;DHT22;13092;51.996;4.458;2022-10-31T09:56:23;15.30;99.90
25112;DHT22;13092;51.996;4.458;2022-10-31T09:59:00;15.50;99.90
25112;DHT22;13092;51.996;4.458;2022-10-31T10:01:34;15.50;99.90
25112;DHT22;13092;51.996;4.458;2022-10-31T10:04:19;15.60;99.90
25112;DHT22;13092;51.996;4.458;2022-10-31T10:06:50;15.60;99.90
25112;DHT22;13092;51.996;4.458;2022-10-31T10:09:21;15.60;99.90
25112;DHT22;13092;51.996;4.458;2022-10-31T10:11:57;15.80;99.90
25112;DHT22;13092;51.996;4.458;2022-10-31T10:14:40;15.70;99.90
25112;DHT22;13092;51.996;4.458;2022-10-31T10:17:19;15.70;99.90
25112;DHT22;13092;51.996;4.458;2022-10-31T10:20:14;15.80;99.90
25112;DHT22;13092;51.996;4.458;2022-10-31T10:22:56;15.80;99.90
25112;DHT22;13092;51.996;4.458;2022-10-31T10:36:56;16.10;99.90
25112;DHT22;13092;51.996;4.458;2022-10-31T10:39:29;16.20;99.90
25112;DHT22;13092;51.996;4.458;2022-10-31T10:41:59;16.40;99.90
25112;DHT22;13092;51.996;4.458;2022-10-31T10:44:47;16.40;99.90
25112;DHT22;13092;51.996;4.458;2022-10-31T10:47:40;16.40;99.90
25112;DHT22;13092;51.996;4.458;2022-10-31T10:50:13;16.50;99.90
25112;DHT22;13092;51.996;4.458;2022-10-31T10:52:50;16.50;99.90
25112;DHT22;13092;51.996;4.458;2022-10-31T10:55:29;16.60;99.90
25112;DHT22;13092;51.996;4.458;2022-10-31T10:58:01;16.70;99.90
25112;DHT22;13092;51.996;4.458;2022-10-31T11:00:32;16.70;99.90
25112;DHT22;13092;51.996;4.458;2022-10-31T11:03:02;16.80;99.90
25112;DHT22;13092;51.996;4.458;2022-10-31T11:05:36;16.90;99.90
25112;DHT22;13092;51.996;4.458;2022-10-31T11:08:06;16.90;99.90
25112;DHT22;13092;51.996;4.458;2022-10-31T11:10:35;17.00;99.90
25112;DHT22;13092;51.996;4.458;2022-10-31T11:13:14;17.00;99.90
25112;DHT22;13092;51.996;4.458;2022-10-31T11:15:53;17.00;99.90
25112;DHT22;13092;51.996;4.458;2022-10-31T11:18:24;17.10;99.90
25112;DHT22;13092;51.996;4.458;2022-10-31T11:20:55;17.20;99.90
25112;DHT22;13092;51.996;4.458;2022-10-31T11:23:26;17.20;99.90
25112;DHT22;13092;51.996;4.458;2022-10-31T11:25:56;17.30;99.90
25112;DHT22;13092;51.996;4.458;2022-10-31T11:28:24;17.20;99.90
25112;DHT22;13092;51.996;4.458;2022-10-31T11:30:56;17.20;99.90
25112;DHT22;13092;51.996;4.458;2022-10-31T11:33:29;17.20;99.90
25112;DHT22;13092;51.996;4.458;2022-10-31T11:36:00;17.10;99.90
25112;DHT22;13092;51.996;4.458;2022-10-31T11:38:33;17.20;99.90
25112;DHT22;13092;51.996;4.458;2022-10-31T11:41:12;17.10;99.90
25112;DHT22;13092;51.996;4.458;2022-10-31T11:43:48;17.20;99.90
25112;DHT22;13092;51.996;4.458;2022-10-31T11:46:20;17.10;99.90
25112;DHT22;13092;51.996;4.458;2022-10-31T11:48:50;17.20;99.90
25112;DHT22;13092;51.996;4.458;2022-10-31T11:51:25;17.20;99.90
25112;DHT22;13092;51.996;4.458;2022-10-31T11:53:57;17.20;99.90
25112;DHT22;13092;51.996;4.458;2022-10-31T11:56:38;17.30;99.90
25112;DHT22;13092;51.996;4.458;2022-10-31T11:59:17;17.30;99.90
25112;DHT22;13092;51.996;4.458;2022-10-31T12:01:50;17.40;99.90
25112;DHT22;13092;51.996;4.458;2022-10-31T12:04:23;17.40;99.90
25112;DHT22;13092;51.996;4.458;2022-10-31T12:06:53;17.40;99.90
25112;DHT22;13092;51.996;4.458;2022-10-31T12:09:24;17.40;99.90
25112;DHT22;13092;51.996;4.458;2022-10-31T12:12:12;17.40;99.90
25112;DHT22;13092;51.996;4.458;2022-10-31T12:14:49;17.50;99.90
25112;DHT22;13092;51.996;4.458;2022-10-31T12:17:21;17.50;99.90
25112;DHT22;13092;51.996;4.458;2022-10-31T12:20:00;17.60;99.90
25112;DHT22;13092;51.996;4.458;2022-10-31T12:22:36;17.60;99.90
25112;DHT22;13092;51.996;4.458;2022-10-31T12:25:21;17.60;99.90
25112;DHT22;13092;51.996;4.458;2022-10-31T12:28:04;17.90;99.90
25112;DHT22;13092;51.996;4.458;2022-10-31T12:30:50;17.80;99.90
25112;DHT22;13092;51.996;4.458;2022-10-31T12:33:37;17.80;99.90
25112;DHT22;13092;51.996;4.458;2022-10-31T12:36:27;17.80;99.90
25112;DHT22;13092;51.996;4.458;2022-10-31T12:39:10;17.90;99.90
25112;DHT22;13092;51.996;4.458;2022-10-31T12:41:49;17.90;99.90
25112;DHT22;13092;51.996;4.458;2022-10-31T12:44:40;17.90;99.90
25112;DHT22;13092;51.996;4.458;2022-10-31T12:47:31;18.00;99.90
25112;DHT22;13092;51.996;4.458;2022-10-31T12:50:12;18.00;99.90
25112;DHT22;13092;51.996;4.458;2022-10-31T12:52:54;18.00;99.90
25112;DHT22;13092;51.996;4.458;2022-10-31T12:55:38;18.00;99.90
25112;DHT22;13092;51.996;4.458;2022-10-31T12:58:17;17.90;99.90
25112;DHT22;13092;51.996;4.458;2022-10-31T13:01:03;17.80;99.90
25112;DHT22;13092;51.996;4.458;2022-10-31T13:03:42;17.80;99.90
25112;DHT22;13092;51.996;4.458;2022-10-31T13:06:16;17.80;99.90
25112;DHT22;13092;51.996;4.458;2022-10-31T13:08:50;17.70;99.90
25112;DHT22;13092;51.996;4.458;2022-10-31T13:11:23;17.70;99.90
25112;DHT22;13092;51.996;4.458;2022-10-31T13:14:00;17.70;99.90
25112;DHT22;13092;51.996;4.458;2022-10-31T13:16:34;17.70;99.90
25112;DHT22;13092;51.996;4.458;2022-10-31T13:19:08;17.70;99.90
25112;DHT22;13092;51.996;4.458;2022-10-31T13:21:44;17.80;99.90
25112;DHT22;13092;51.996;4.458;2022-10-31T13:24:21;17.80;99.90
25112;DHT22;13092;51.996;4.458;2022-10-31T13:26:52;17.70;99.90
25112;DHT22;13092;51.996;4.458;2022-10-31T13:29:27;17.70;99.90
25112;DHT22;13092;51.996;4.458;2022-10-31T13:31:59;17.70;99.90
25112;DHT22;13092;51.996;4.458;2022-10-31T13:34:37;17.80;99.90
25112;DHT22;13092;51.996;4.458;2022-10-31T13:37:16;17.80;99.90
25112;DHT22;13092;51.996;4.458;2022-10-31T13:39:58;18.00;99.90
25112;DHT22;13092;51.996;4.458;2022-10-31T13:42:40;18.00;99.90
25112;DHT22;13092;51.996;4.458;2022-10-31T13:45:16;17.90;99.90
25112;DHT22;13092;51.996;4.458;2022-10-31T13:48:00;17.90;99.90
25112;DHT22;13092;51.996;4.458;2022-10-31T13:50:37;17.80;99.90
25112;DHT22;13092;51.996;4.458;2022-10-31T13:53:20;17.90;99.90
25112;DHT22;13092;51.996;4.458;2022-10-31T13:56:02;17.80;99.90
25112;DHT22;13092;51.996;4.458;2022-10-31T13:58:31;17.80;99.90
25112;DHT22;13092;51.996;4.458;2022-10-31T14:01:28;17.70;99.90
25112;DHT22;13092;51.996;4.458;2022-10-31T14:04:05;17.50;99.90
25112;DHT22;13092;51.996;4.458;2022-10-31T14:06:52;17.60;99.90
25112;DHT22;13092;51.996;4.458;2022-10-31T14:09:54;17.70;99.90
25112;DHT22;13092;51.996;4.458;2022-10-31T14:13:03;17.60;99.90
25112;DHT22;13092;51.996;4.458;2022-10-31T14:16:24;17.50;99.90
25112;DHT22;13092;51.996;4.458;2022-10-31T14:19:24;17.50;99.90
25112;DHT22;13092;51.996;4.458;2022-10-31T14:22:23;17.50;99.90
25112;DHT22;13092;51.996;4.458;2022-10-31T14:25:00;17.30;99.90
25112;DHT22;13092;51.996;4.458;2022-10-31T14:27:45;17.50;99.90
25112;DHT22;13092;51.996;4.458;2022-10-31T14:30:32;17.50;99.90
25112;DHT22;13092;51.996;4.458;2022-10-31T14:33:27;17.50;99.90
25112;DHT22;13092;51.996;4.458;2022-10-31T14:36:32;17.50;99.90
25112;DHT22;13092;51.996;4.458;2022-10-31T14:39:09;17.40;99.90
25112;DHT22;13092;51.996;4.458;2022-10-31T14:41:54;17.40;99.90
25112;DHT22;13092;51.996;4.458;2022-10-31T14:47:42;17.40;99.90
25112;DHT22;13092;51.996;4.458;2022-10-31T14:50:33;17.40;99.90
25112;DHT22;13092;51.996;4.458;2022-10-31T14:53:22;17.40;99.90
25112;DHT22;13092;51.996;4.458;2022-10-31T14:55:57;17.30;99.90
25112;DHT22;13092;51.996;4.458;2022-10-31T14:58:44;17.40;99.90
25112;DHT22;13092;51.996;4.458;2022-10-31T15:01:36;17.40;99.90
25112;DHT22;13092;51.996;4.458;2022-10-31T15:04:21;17.30;99.90
25112;DHT22;13092;51.996;4.458;2022-10-31T15:07:04;17.50;99.90
25112;DHT22;13092;51.996;4.458;2022-10-31T15:09:36;17.30;99.90
25112;DHT22;13092;51.996;4.458;2022-10-31T15:12:25;17.30;99.90
25112;DHT22;13092;51.996;4.458;2022-10-31T15:15:20;17.20;99.90
25112;DHT22;13092;51.996;4.458;2022-10-31T15:17:57;17.20;99.90
25112;DHT22;13092;51.996;4.458;2022-10-31T15:20:33;17.30;99.90
25112;DHT22;13092;51.996;4.458;2022-10-31T15:23:11;17.20;99.90
25112;DHT22;13092;51.996;4.458;2022-10-31T15:25:42;17.20;99.90
25112;DHT22;13092;51.996;4.458;2022-10-31T15:31:05;17.10;99.90
25112;DHT22;13092;51.996;4.458;2022-10-31T15:33:47;17.10;99.90
25112;DHT22;13092;51.996;4.458;2022-10-31T15:36:20;17.10;99.90
25112;DHT22;13092;51.996;4.458;2022-10-31T15:38:56;17.00;99.90
25112;DHT22;13092;51.996;4.458;2022-10-31T15:41:29;17.10;99.90
25112;DHT22;13092;51.996;4.458;2022-10-31T15:44:03;17.00;99.90
25112;DHT22;13092;51.996;4.458;2022-10-31T15:46:37;16.90;99.90
25112;DHT22;13092;51.996;4.458;2022-10-31T15:49:24;17.10;99.90
25112;DHT22;13092;51.996;4.458;2022-10-31T15:51:53;17.10;99.90
25112;DHT22;13092;51.996;4.458;2022-10-31T15:54:22;17.20;99.90
25112;DHT22;13092;51.996;4.458;2022-10-31T15:56:50;16.90;99.90
25112;DHT22;13092;51.996;4.458;2022-10-31T15:59:21;17.00;99.90
25112;DHT22;13092;51.996;4.458;2022-10-31T16:02:00;17.00;99.90
25112;DHT22;13092;51.996;4.458;2022-10-31T16:04:29;17.00;99.90
25112;DHT22;13092;51.996;4.458;2022-10-31T16:07:02;16.90;99.90
25112;DHT22;13092;51.996;4.458;2022-10-31T16:09:30;16.90;99.90
25112;DHT22;13092;51.996;4.458;2022-10-31T16:11:59;16.80;99.90
25112;DHT22;13092;51.996;4.458;2022-10-31T16:14:38;16.80;99.90
25112;DHT22;13092;51.996;4.458;2022-10-31T16:17:13;16.80;99.90
25112;DHT22;13092;51.996;4.458;2022-10-31T16:19:48;16.80;99.90
25112;DHT22;13092;51.996;4.458;2022-10-31T16:22:24;16.80;99.90
25112;DHT22;13092;51.996;4.458;2022-10-31T16:24:59;16.70;99.90
25112;DHT22;13092;51.996;4.458;2022-10-31T16:27:31;16.80;99.90